M I D A S
Marine Information and Data Acquisition System
Tripno 2281 of the Zeeleeuw from 2012-03-27 06:35:23 to 2012-03-27 13:54:23
Back to CruiseResearch ActivitiesStationsMapUnderway DataData graphs

EquipmentUnitsComment
TimeDGPSUTC
LatitudeDGPSDM.mWGS84
LongitudeDGPSDM.mWGS84
HeadingGyrodeg 
SOGDGPSknotsSpeed over ground
COGDGPSdegCourse over ground
DepthEcho soundermeters200 kHz
Missing or incorrect values are displayed as -999
Navigation data collected by the RV Zeeleeuw from 2012-03-27 06:24:12 to 2012-03-27 14:08:26
                                                                                    Next 1000 lines
Time Latitude Longitude Heading SOG COG Depth
2012-03-27 06:24:22 51°13.635 2°56.017 125.7 -999 290 -999
2012-03-27 06:24:27 51°13.635 2°56.017 125.7 0.1 231 -999
2012-03-27 06:24:32 51°13.635 2°56.017 125.7 0.1 216 -999
2012-03-27 06:24:36 51°13.635 2°56.017 125.7 -999 211 -999
2012-03-27 06:24:41 51°13.635 2°56.017 125.7 -999 12 -999
2012-03-27 06:24:46 51°13.635 2°56.018 125.7 -999 29 -999
2012-03-27 06:24:52 51°13.635 2°56.018 125.7 -999 297 -999
2012-03-27 06:24:56 51°13.635 2°56.018 125.7 0.1 220 -999
2012-03-27 06:25:01 51°13.635 2°56.018 125.7 0.1 212 -999
2012-03-27 06:25:07 51°13.635 2°56.018 125.7 0.1 21 -999
2012-03-27 06:25:12 51°13.635 2°56.017 125.7 0.1 231 -999
2012-03-27 06:25:16 51°13.635 2°56.018 125.7 0.1 226 -999
2012-03-27 06:25:21 51°13.635 2°56.017 125.7 -999 274 -999
2012-03-27 06:25:26 51°13.635 2°56.017 125.7 -999 225 -999
2012-03-27 06:25:32 51°13.635 2°56.017 125.7 -999 235 -999
2012-03-27 06:25:36 51°13.635 2°56.018 125.7 0.1 47 -999
2012-03-27 06:25:41 51°13.635 2°56.018 125.7 0.1 87 -999
2012-03-27 06:25:47 51°13.635 2°56.018 125.7 -999 280 -999
2012-03-27 06:25:52 51°13.635 2°56.017 125.7 0.1 218 -999
2012-03-27 06:25:57 51°13.635 2°56.017 125.7 0.1 208 -999
2012-03-27 06:26:02 51°13.635 2°56.017 125.7 0.1 38 -999
2012-03-27 06:26:07 51°13.635 2°56.017 125.7 0.1 300 -999
2012-03-27 06:26:12 51°13.635 2°56.017 125.7 0.1 25 -999
2012-03-27 06:26:17 51°13.635 2°56.017 125.7 0.1 50 -999
2012-03-27 06:26:22 51°13.635 2°56.017 125.7 -999 216 -999
2012-03-27 06:26:27 51°13.636 2°56.017 125.7 -999 4 -999
2012-03-27 06:26:32 51°13.636 2°56.017 125.7 -999 208 -999
2012-03-27 06:26:37 51°13.636 2°56.017 125.7 0.1 26 -999
2012-03-27 06:26:42 51°13.636 2°56.017 125.7 0.1 30 -999
2012-03-27 06:26:46 51°13.636 2°56.017 125.7 0.2 16 -999
2012-03-27 06:26:51 51°13.636 2°56.017 125.7 0.2 23 -999
2012-03-27 06:26:57 51°13.636 2°56.017 125.7 -999 12 -999
2012-03-27 06:27:02 51°13.636 2°56.017 125.7 -999 5 -999
2012-03-27 06:27:07 51°13.636 2°56.017 125.7 -999 161 -999
2012-03-27 06:27:12 51°13.636 2°56.017 125.7 -999 149 -999
2012-03-27 06:27:17 51°13.636 2°56.017 125.7 -999 15 -999
2012-03-27 06:27:22 51°13.636 2°56.017 125.7 0.1 22 -999
2012-03-27 06:27:26 51°13.636 2°56.017 125.7 0.1 13 -999
2012-03-27 06:27:31 51°13.636 2°56.017 125.7 -999 -999 -999
2012-03-27 06:27:36 51°13.636 2°56.017 125.7 0.1 223 -999
2012-03-27 06:27:42 51°13.636 2°56.017 125.7 0.1 308 -999
2012-03-27 06:27:47 51°13.636 2°56.017 125.7 0.1 6 -999
2012-03-27 06:27:51 51°13.636 2°56.017 125.7 -999 103 -999
2012-03-27 06:27:56 51°13.636 2°56.017 125.7 -999 134 -999
2012-03-27 06:28:01 51°13.636 2°56.017 125.7 0.1 -999 -999
2012-03-27 06:28:06 51°13.636 2°56.017 125.7 0.1 16 -999
2012-03-27 06:28:11 51°13.636 2°56.017 125.7 -999 333 -999
2012-03-27 06:28:16 51°13.636 2°56.017 125.7 0.1 18 -999
2012-03-27 06:28:21 51°13.636 2°56.017 125.7 0.1 229 -999
2012-03-27 06:28:26 51°13.636 2°56.017 125.7 0.1 191 -999
2012-03-27 06:28:31 51°13.636 2°56.017 125.7 0.1 77 -999
2012-03-27 06:28:36 51°13.636 2°56.017 125.6 -999 98 -999
2012-03-27 06:28:41 51°13.636 2°56.017 125.6 -999 342 -999
2012-03-27 06:28:47 51°13.636 2°56.017 125.6 -999 89 -999
2012-03-27 06:28:52 51°13.636 2°56.017 125.7 -999 6 -999
2012-03-27 06:28:56 51°13.636 2°56.017 125.8 -999 163 -999
2012-03-27 06:29:01 51°13.636 2°56.017 125.9 0.1 207 -999
2012-03-27 06:29:06 51°13.636 2°56.017 126 0.1 205 -999
2012-03-27 06:29:11 51°13.636 2°56.017 126.1 -999 195 -999
2012-03-27 06:29:16 51°13.636 2°56.018 126.2 -999 269 -999
2012-03-27 06:29:22 51°13.636 2°56.018 126.2 -999 22 -999
2012-03-27 06:29:26 51°13.636 2°56.018 126.3 -999 1 -999
2012-03-27 06:29:32 51°13.637 2°56.018 126.3 0.1 14 -999
2012-03-27 06:29:36 51°13.636 2°56.018 126.3 -999 49 -999
2012-03-27 06:29:41 51°13.636 2°56.018 126.3 0.1 201 -999
2012-03-27 06:29:46 51°13.636 2°56.018 126.2 -999 162 -999
2012-03-27 06:29:51 51°13.636 2°56.018 126.1 -999 65 -999
2012-03-27 06:29:57 51°13.636 2°56.018 126 -999 53 -999
2012-03-27 06:30:02 51°13.636 2°56.018 125.9 0.1 202 -999
2012-03-27 06:30:06 51°13.636 2°56.018 125.8 0.1 203 -999
2012-03-27 06:30:11 51°13.636 2°56.018 125.7 0.1 194 -999
2012-03-27 06:30:17 51°13.637 2°56.018 125.6 0.1 13 -999
2012-03-27 06:30:22 51°13.636 2°56.017 125.4 -999 48 -999
2012-03-27 06:30:26 51°13.636 2°56.017 125.2 -999 65 -999
2012-03-27 06:30:31 51°13.637 2°56.018 125.1 0.1 19 -999
2012-03-27 06:30:36 51°13.636 2°56.018 125.1 0.1 210 -999
2012-03-27 06:30:42 51°13.634 2°56.019 125.1 0.1 246 -999
2012-03-27 06:30:47 51°13.633 2°56.019 125.1 0.1 13 -999
2012-03-27 06:30:52 51°13.633 2°56.019 125.1 -999 177 -999
2012-03-27 06:30:56 51°13.633 2°56.019 125.1 -999 60 -999
2012-03-27 06:31:01 51°13.633 2°56.019 125.1 -999 9 -999
2012-03-27 06:31:06 51°13.634 2°56.019 125.1 -999 193 -999
2012-03-27 06:31:11 51°13.634 2°56.019 125.3 0.1 196 -999
2012-03-27 06:31:15 51°13.634 2°56.019 125.6 -999 178 -999
2012-03-27 06:31:21 51°13.634 2°56.019 125.7 0.1 51 -999
2012-03-27 06:31:27 51°13.634 2°56.018 125.9 0.1 205 -999
2012-03-27 06:31:32 51°13.634 2°56.018 126 0.1 208 -999
2012-03-27 06:31:36 51°13.634 2°56.018 126.1 0.1 22 -999
2012-03-27 06:31:41 51°13.634 2°56.018 126.1 0.1 28 -999
2012-03-27 06:31:46 51°13.634 2°56.018 126.2 0.1 28 -999
2012-03-27 06:31:51 51°13.633 2°56.018 126.3 0.1 193 -999
2012-03-27 06:31:56 51°13.634 2°56.018 126.3 0.1 195 -999
2012-03-27 06:32:02 51°13.634 2°56.019 126.4 -999 133 -999
2012-03-27 06:32:06 51°13.634 2°56.019 126.5 -999 166 -999
2012-03-27 06:32:11 51°13.635 2°56.019 126.5 -999 213 -999
2012-03-27 06:32:16 51°13.635 2°56.019 126.7 0.1 10 -999
2012-03-27 06:32:21 51°13.635 2°56.019 126.9 0.1 1 -999
2012-03-27 06:32:26 51°13.635 2°56.019 127 0.1 14 -999
2012-03-27 06:32:31 51°13.635 2°56.019 127.1 -999 335 -999
2012-03-27 06:32:37 51°13.635 2°56.019 127.1 0.1 12 -999
2012-03-27 06:32:42 51°13.635 2°56.019 127.2 0.1 35 -999
2012-03-27 06:32:47 51°13.635 2°56.019 127.2 -999 142 -999
2012-03-27 06:32:51 51°13.635 2°56.019 127.2 -999 196 -999
2012-03-27 06:32:57 51°13.636 2°56.019 127.3 -999 237 -999
2012-03-27 06:33:02 51°13.636 2°56.019 127.4 -999 335 -999
2012-03-27 06:33:07 51°13.636 2°56.018 127.4 -999 253 -999
2012-03-27 06:33:11 51°13.636 2°56.018 127.4 0.1 301 -999
2012-03-27 06:33:17 51°13.636 2°56.018 127.4 0.1 312 -999
2012-03-27 06:33:22 51°13.636 2°56.019 127.4 0.1 47 -999
2012-03-27 06:33:27 51°13.636 2°56.018 127.3 -999 193 -999
2012-03-27 06:33:31 51°13.636 2°56.018 127.3 -999 300 -999
2012-03-27 06:33:37 51°13.635 2°56.019 127.4 -999 28 -999
2012-03-27 06:33:42 51°13.634 2°56.019 127.6 0.1 6 -999
2012-03-27 06:33:46 51°13.634 2°56.019 127.7 -999 42 -999
2012-03-27 06:33:51 51°13.635 2°56.019 127.7 -999 68 -999
2012-03-27 06:33:56 51°13.635 2°56.019 127.7 0.1 202 -999
2012-03-27 06:34:02 51°13.635 2°56.019 127.7 0.1 210 -999
2012-03-27 06:34:06 51°13.635 2°56.019 127.7 -999 222 -999
2012-03-27 06:34:11 51°13.635 2°56.019 127.8 -999 312 -999
2012-03-27 06:34:16 51°13.635 2°56.019 127.8 -999 43 -999
2012-03-27 06:34:22 51°13.635 2°56.019 127.8 -999 37 -999
2012-03-27 06:34:26 51°13.635 2°56.019 127.8 0.1 42 -999
2012-03-27 06:34:31 51°13.635 2°56.019 127.8 -999 180 -999
2012-03-27 06:34:36 51°13.635 2°56.019 127.8 0.1 190 -999
2012-03-27 06:34:42 51°13.635 2°56.019 128 -999 71 -999
2012-03-27 06:34:46 51°13.635 2°56.019 128 0.1 4 -999
2012-03-27 06:34:51 51°13.635 2°56.019 128.1 -999 340 -999
2012-03-27 06:34:56 51°13.635 2°56.019 128.1 -999 194 -999
2012-03-27 06:35:02 51°13.635 2°56.019 128.2 -999 213 -999
2012-03-27 06:35:06 51°13.635 2°56.019 128.2 -999 112 -999
2012-03-27 06:35:11 51°13.635 2°56.019 128.2 0.1 103 -999
2012-03-27 06:35:16 51°13.635 2°56.019 128.2 0.1 152 -999
2012-03-27 06:35:21 51°13.635 2°56.019 128.3 -999 198 -999
2012-03-27 06:35:27 51°13.635 2°56.019 128.6 -999 330 8
2012-03-27 06:35:31 51°13.635 2°56.019 128.6 0.1 336 -999
2012-03-27 06:35:36 51°13.634 2°56.019 128.6 0.1 239 -999
2012-03-27 06:35:41 51°13.634 2°56.019 128.6 0.1 219 8
2012-03-27 06:35:47 51°13.635 2°56.019 128.6 -999 5 8
2012-03-27 06:35:51 51°13.635 2°56.019 128.8 0.1 20 -999
2012-03-27 06:35:56 51°13.635 2°56.019 129 0.1 1 8.3
2012-03-27 06:36:02 51°13.635 2°56.019 129.3 -999 331 -999
2012-03-27 06:36:06 51°13.635 2°56.019 129.5 -999 156 -999
2012-03-27 06:36:11 51°13.635 2°56.019 129.6 -999 158 -999
2012-03-27 06:36:16 51°13.635 2°56.019 129.6 0.1 38 8.1
2012-03-27 06:36:21 51°13.635 2°56.019 129.3 0.1 40 -999
2012-03-27 06:36:26 51°13.635 2°56.019 128.6 0.1 46 8
2012-03-27 06:36:31 51°13.635 2°56.019 128.1 0.1 26 8
2012-03-27 06:36:36 51°13.635 2°56.019 127.5 -999 59 -999
2012-03-27 06:36:42 51°13.635 2°56.019 126.2 0.1 64 -999
2012-03-27 06:36:46 51°13.635 2°56.019 125.2 -999 74 -999
2012-03-27 06:36:51 51°13.635 2°56.019 123.9 -999 101 -999
2012-03-27 06:36:56 51°13.635 2°56.019 123 0.1 86 -999
2012-03-27 06:37:02 51°13.635 2°56.019 121.9 0.1 48 -999
2012-03-27 06:37:06 51°13.635 2°56.019 120.9 0.1 34 -999
2012-03-27 06:37:11 51°13.635 2°56.019 120.1 0.1 236 -999
2012-03-27 06:37:16 51°13.635 2°56.019 119.7 0.1 194 -999
2012-03-27 06:37:22 51°13.634 2°56.019 119.1 0.2 204 -999
2012-03-27 06:37:26 51°13.634 2°56.019 118.7 0.1 204 8.1
2012-03-27 06:37:31 51°13.634 2°56.019 118.2 0.1 204 8
2012-03-27 06:37:36 51°13.634 2°56.019 117.7 0.1 188 8.1
2012-03-27 06:37:41 51°13.635 2°56.019 117 0.1 35 -999
2012-03-27 06:37:46 51°13.635 2°56.019 116.2 -999 59 -999
2012-03-27 06:37:51 51°13.634 2°56.019 115.2 0.2 210 -999
2012-03-27 06:37:56 51°13.634 2°56.019 114.3 0.1 201 8.1
2012-03-27 06:38:01 51°13.634 2°56.019 113.4 0.1 166 -999
2012-03-27 06:38:06 51°13.634 2°56.019 112.7 0.1 174 -999
2012-03-27 06:38:11 51°13.634 2°56.019 111.9 0.1 187 -999
2012-03-27 06:38:16 51°13.634 2°56.019 111.1 0.1 209 8.1
2012-03-27 06:38:21 51°13.634 2°56.019 110 0.1 204 -999
2012-03-27 06:38:26 51°13.633 2°56.018 109.2 0.2 212 -999
2012-03-27 06:38:31 51°13.633 2°56.018 108.3 0.2 239 8.1
2012-03-27 06:38:36 51°13.634 2°56.017 107.6 0.4 284 -999
2012-03-27 06:38:41 51°13.634 2°56.016 107.3 0.8 279 -999
2012-03-27 06:38:46 51°13.634 2°56.013 107.1 1.2 275 8.1
2012-03-27 06:38:51 51°13.635 2°56.01 107 1.4 283 -999
2012-03-27 06:38:56 51°13.635 2°56.007 107 1.8 284 -999
2012-03-27 06:39:01 51°13.637 2°56.001 107.2 2.2 290 8.1
2012-03-27 06:39:06 51°13.638 2°55.996 107.5 2.5 289 -999
2012-03-27 06:39:11 51°13.64 2°55.99 107.9 2.7 289 -999
2012-03-27 06:39:16 51°13.641 2°55.985 108.2 2.9 289 -999
2012-03-27 06:39:22 51°13.642 2°55.977 108.6 3.1 288 -999
2012-03-27 06:39:26 51°13.643 2°55.971 109 3.3 287 -999
2012-03-27 06:39:31 51°13.645 2°55.964 109.2 3.4 288 -999
2012-03-27 06:39:36 51°13.646 2°55.957 109.4 3.5 288 -999
2012-03-27 06:39:42 51°13.648 2°55.949 109.7 3.5 288 -999
2012-03-27 06:39:47 51°13.65 2°55.941 109.9 3.7 288 -999
2012-03-27 06:39:51 51°13.652 2°55.935 110.3 3.7 288 -999
2012-03-27 06:39:56 51°13.653 2°55.926 111.1 3.9 288 -999
2012-03-27 06:40:01 51°13.655 2°55.918 112 4 288 -999
2012-03-27 06:40:07 51°13.658 2°55.908 113.6 4.1 292 -999
2012-03-27 06:40:11 51°13.66 2°55.902 114.8 4.2 293 -999
2012-03-27 06:40:16 51°13.662 2°55.893 116.3 4.4 295 -999
2012-03-27 06:40:21 51°13.665 2°55.884 117.7 4.5 296 -999
2012-03-27 06:40:26 51°13.667 2°55.875 119.3 4.6 297 -999
2012-03-27 06:40:31 51°13.671 2°55.866 120.9 4.7 299 -999
2012-03-27 06:40:36 51°13.674 2°55.856 122.7 4.8 300 -999
2012-03-27 06:40:41 51°13.678 2°55.848 124.2 4.8 303 -999
2012-03-27 06:40:46 51°13.681 2°55.839 125.7 4.9 304 -999
2012-03-27 06:40:51 51°13.685 2°55.829 127.1 4.9 305 -999
2012-03-27 06:40:56 51°13.689 2°55.821 128.5 5 307 -999
2012-03-27 06:41:01 51°13.694 2°55.812 129.9 5.1 307 -999
2012-03-27 06:41:06 51°13.698 2°55.803 131.2 5.1 310 -999
2012-03-27 06:41:11 51°13.703 2°55.794 132.5 5.1 311 -999
2012-03-27 06:41:16 51°13.707 2°55.786 133.7 5.1 313 -999
2012-03-27 06:41:22 51°13.713 2°55.776 134.8 5.2 313 -999
2012-03-27 06:41:26 51°13.718 2°55.77 135.7 5.2 315 -999
2012-03-27 06:41:31 51°13.722 2°55.762 136.4 5.2 315 -999
2012-03-27 06:41:36 51°13.728 2°55.754 137.1 5.2 316 -999
2012-03-27 06:41:42 51°13.734 2°55.744 137.5 5.2 316 -999
2012-03-27 06:41:46 51°13.738 2°55.737 137.9 5.3 316 -999
2012-03-27 06:41:51 51°13.743 2°55.729 138.3 5.2 315 -999
2012-03-27 06:41:56 51°13.748 2°55.722 139 5.3 317 -999
2012-03-27 06:42:01 51°13.754 2°55.714 139.9 5.3 318 -999
2012-03-27 06:42:07 51°13.76 2°55.704 140.8 5.3 318 -999
2012-03-27 06:42:11 51°13.765 2°55.698 141.8 5.4 319 -999
2012-03-27 06:42:16 51°13.771 2°55.69 143.1 5.3 320 -999
2012-03-27 06:42:21 51°13.776 2°55.683 144.4 5.3 320 -999
2012-03-27 06:42:27 51°13.784 2°55.674 145.7 5.4 323 -999
2012-03-27 06:42:31 51°13.788 2°55.668 147.2 5.4 323 -999
2012-03-27 06:42:36 51°13.794 2°55.662 148.9 5.4 326 -999
2012-03-27 06:42:41 51°13.801 2°55.656 151.1 5.4 328 -999
2012-03-27 06:42:46 51°13.807 2°55.65 153.4 5.4 331 -999
2012-03-27 06:42:51 51°13.814 2°55.645 156.1 5.4 334 -999
2012-03-27 06:42:56 51°13.821 2°55.64 158.7 5.4 336 -999
2012-03-27 06:43:01 51°13.828 2°55.635 161.2 5.4 339 -999
2012-03-27 06:43:06 51°13.835 2°55.631 163.8 5.5 342 -999
2012-03-27 06:43:11 51°13.842 2°55.628 166.3 5.5 344 -999
2012-03-27 06:43:16 51°13.849 2°55.625 168.7 5.4 346 -999
2012-03-27 06:43:22 51°13.858 2°55.622 171.3 5.4 348 -999
2012-03-27 06:43:26 51°13.864 2°55.62 173.7 5.5 351 -999
2012-03-27 06:43:31 51°13.872 2°55.619 176.3 5.5 353 -999
2012-03-27 06:43:36 51°13.879 2°55.618 178.7 5.2 355 -999
2012-03-27 06:43:42 51°13.887 2°55.617 181.4 5.1 357 -999
2012-03-27 06:43:46 51°13.893 2°55.617 184 5 359 -999
2012-03-27 06:43:51 51°13.9 2°55.618 186.5 5.1 2 -999
2012-03-27 06:43:56 51°13.908 2°55.619 189.1 5 5 -999
2012-03-27 06:44:02 51°13.915 2°55.621 191.7 4.9 8 -999
2012-03-27 06:44:07 51°13.922 2°55.623 194.5 4.6 10 -999
2012-03-27 06:44:11 51°13.927 2°55.625 197.4 4.5 12 -999
2012-03-27 06:44:16 51°13.933 2°55.627 200.1 4.4 15 -999
2012-03-27 06:44:21 51°13.938 2°55.63 202.6 4.3 17 -999
2012-03-27 06:44:27 51°13.945 2°55.634 205 4.1 19 -999
2012-03-27 06:44:31 51°13.949 2°55.636 207.3 3.9 21 -999
2012-03-27 06:44:36 51°13.953 2°55.639 209.5 3.6 23 -999
2012-03-27 06:44:41 51°13.958 2°55.643 211.3 3.5 25 -999
2012-03-27 06:44:46 51°13.962 2°55.646 213.3 3.1 26 -999
2012-03-27 06:44:51 51°13.965 2°55.649 215.3 2.9 28 -999
2012-03-27 06:44:56 51°13.968 2°55.651 217.4 2.5 29 10.4
2012-03-27 06:45:01 51°13.971 2°55.654 220 2.2 33 -999
2012-03-27 06:45:06 51°13.974 2°55.657 222.2 1.9 34 -999
2012-03-27 06:45:11 51°13.975 2°55.658 225.5 1.5 33 -999
2012-03-27 06:45:16 51°13.977 2°55.66 228.6 1.3 33 10.5
2012-03-27 06:45:22 51°13.978 2°55.662 232.1 1 33 -999
2012-03-27 06:45:26 51°13.979 2°55.662 236 0.6 26 -999
2012-03-27 06:45:31 51°13.98 2°55.662 240.9 0.4 3 -999
2012-03-27 06:45:36 51°13.98 2°55.661 245.2 0.4 312 -999
2012-03-27 06:45:42 51°13.981 2°55.659 249.7 0.6 286 -999
2012-03-27 06:45:46 51°13.981 2°55.658 254.7 0.9 279 -999
2012-03-27 06:45:51 51°13.981 2°55.655 260.2 1.1 278 -999
2012-03-27 06:45:56 51°13.981 2°55.652 266.1 1.4 279 -999
2012-03-27 06:46:02 51°13.981 2°55.648 271.9 1.6 283 -999
2012-03-27 06:46:07 51°13.982 2°55.644 277.6 1.9 289 -999
2012-03-27 06:46:11 51°13.983 2°55.641 283.6 2 292 -999
2012-03-27 06:46:16 51°13.984 2°55.636 289.4 2.3 296 -999
2012-03-27 06:46:22 51°13.986 2°55.63 295 2.6 303 -999
2012-03-27 06:46:27 51°13.988 2°55.625 299.8 3 303 -999
2012-03-27 06:46:31 51°13.991 2°55.62 303 3.3 305 -999
2012-03-27 06:46:36 51°13.993 2°55.613 305.3 3.8 305 -999
2012-03-27 06:46:41 51°13.997 2°55.605 306.7 4.2 306 -999
2012-03-27 06:46:47 51°14.001 2°55.596 307.2 4.6 306 10.4
2012-03-27 06:46:51 51°14.004 2°55.589 307.9 4.9 308 10.4
2012-03-27 06:46:56 51°14.009 2°55.58 308.6 5.3 309 -999
2012-03-27 06:47:01 51°14.014 2°55.57 309.8 5.7 311 10.4
2012-03-27 06:47:06 51°14.02 2°55.561 311.5 6 313 10.4
2012-03-27 06:47:11 51°14.025 2°55.551 312.9 6.2 314 -999
2012-03-27 06:47:16 51°14.032 2°55.54 314.2 6.5 315 -999
2012-03-27 06:47:21 51°14.038 2°55.53 316.2 6.8 317 -999
2012-03-27 06:47:26 51°14.046 2°55.52 318.7 7.1 319 10.5
2012-03-27 06:47:31 51°14.054 2°55.51 321.1 7.3 322 10.4
2012-03-27 06:47:36 51°14.062 2°55.5 323.1 7.5 324 10.5
2012-03-27 06:47:41 51°14.071 2°55.49 325.5 7.7 325 -999
2012-03-27 06:47:46 51°14.08 2°55.481 327.4 7.8 325 -999
2012-03-27 06:47:51 51°14.089 2°55.471 328.2 8 326 -999
2012-03-27 06:47:56 51°14.099 2°55.461 329 8.2 328 -999
2012-03-27 06:48:02 51°14.11 2°55.449 329.4 8.4 326 -999
2012-03-27 06:48:07 51°14.121 2°55.439 329.4 8.5 327 10.4
2012-03-27 06:48:11 51°14.129 2°55.431 330.1 8.7 328 10.4
2012-03-27 06:48:16 51°14.139 2°55.42 330.3 8.9 329 -999
2012-03-27 06:48:22 51°14.152 2°55.407 330.2 9.1 327 -999
2012-03-27 06:48:26 51°14.161 2°55.399 329.7 9.2 328 -999
2012-03-27 06:48:31 51°14.172 2°55.388 330.5 9.3 330 10.3
2012-03-27 06:48:36 51°14.183 2°55.377 331.3 9.4 328 10.5
2012-03-27 06:48:41 51°14.194 2°55.367 331.4 9.5 329 10.3
2012-03-27 06:48:46 51°14.205 2°55.355 330.9 9.6 328 10.3
2012-03-27 06:48:51 51°14.216 2°55.344 330.8 9.6 328 10.3
2012-03-27 06:48:56 51°14.228 2°55.332 331.1 9.8 328 10.3
2012-03-27 06:49:01 51°14.239 2°55.321 330.6 9.8 327 -999
2012-03-27 06:49:06 51°14.251 2°55.308 328.9 9.9 326 -999
2012-03-27 06:49:11 51°14.262 2°55.296 328.7 9.9 326 -999
2012-03-27 06:49:16 51°14.274 2°55.284 329.2 10 327 -999
2012-03-27 06:49:21 51°14.286 2°55.272 329.5 10.1 327 -999
2012-03-27 06:49:26 51°14.297 2°55.26 329.5 10.1 327 -999
2012-03-27 06:49:31 51°14.309 2°55.248 330 10.1 328 -999
2012-03-27 06:49:36 51°14.321 2°55.236 330.3 10.2 327 -999
2012-03-27 06:49:42 51°14.336 2°55.221 330.3 10.3 327 -999
2012-03-27 06:49:46 51°14.345 2°55.212 330.7 10.3 328 -999
2012-03-27 06:49:51 51°14.358 2°55.2 332.1 10.3 330 -999
2012-03-27 06:49:56 51°14.37 2°55.188 333 10.3 330 -999
2012-03-27 06:50:02 51°14.385 2°55.175 333.2 10.4 329 -999
2012-03-27 06:50:06 51°14.395 2°55.166 333.2 10.4 330 10.4
2012-03-27 06:50:11 51°14.408 2°55.154 333.4 10.5 330 10.2
2012-03-27 06:50:16 51°14.421 2°55.143 333.4 10.7 330 -999
2012-03-27 06:50:22 51°14.437 2°55.129 333 10.8 331 -999
2012-03-27 06:50:26 51°14.447 2°55.12 333.2 10.8 330 10.4
2012-03-27 06:50:31 51°14.46 2°55.108 333.5 10.8 330 -999
2012-03-27 06:50:36 51°14.473 2°55.096 333.6 10.8 331 10.4
2012-03-27 06:50:41 51°14.486 2°55.083 333.4 10.8 329 10.6
2012-03-27 06:50:46 51°14.499 2°55.071 332.5 10.9 328 10.7
2012-03-27 06:50:51 51°14.512 2°55.059 331.7 11 328 10.9
2012-03-27 06:50:55 51°14.522 2°55.048 331.2 11 328 10.6
2012-03-27 06:51:00 51°14.535 2°55.034 331 10.9 325 11
2012-03-27 06:51:05 51°14.547 2°55.019 330.1 11 320 11.3
2012-03-27 06:51:10 51°14.557 2°55.001 327.8 11.2 314 11.7
2012-03-27 06:51:15 51°14.568 2°54.983 323.3 11.3 313 11.8
2012-03-27 06:51:19 51°14.576 2°54.968 321 11.3 313 12
2012-03-27 06:51:24 51°14.588 2°54.949 321.6 11.4 314 12
2012-03-27 06:51:29 51°14.599 2°54.931 322.8 11.6 315 11.8
2012-03-27 06:51:34 51°14.61 2°54.913 323.5 11.7 315 11.7
2012-03-27 06:51:39 51°14.622 2°54.895 324 11.8 316 11.5
2012-03-27 06:51:43 51°14.632 2°54.881 324.4 11.9 316 11.7
2012-03-27 06:51:48 51°14.644 2°54.863 324.9 12 317 11.5
2012-03-27 06:51:53 51°14.657 2°54.845 325.2 12.1 317 11.4
2012-03-27 06:51:58 51°14.67 2°54.827 325.2 12.2 318 11.4
2012-03-27 06:52:03 51°14.682 2°54.809 325.2 12.3 317 11.3
2012-03-27 06:52:08 51°14.695 2°54.791 325.5 12.3 320 11.2
2012-03-27 06:52:13 51°14.708 2°54.774 326.4 12.4 320 11.2
2012-03-27 06:52:18 51°14.721 2°54.756 327.3 12.4 321 11.3
2012-03-27 06:52:23 51°14.735 2°54.739 327.6 12.4 321 11.2
2012-03-27 06:52:28 51°14.749 2°54.722 328.4 12.4 322 11.3
2012-03-27 06:52:33 51°14.763 2°54.706 328.9 12.5 323 11.3
2012-03-27 06:52:38 51°14.776 2°54.69 329.3 12.4 324 11.4
2012-03-27 06:52:43 51°14.79 2°54.674 330 12.4 324 11.5
2012-03-27 06:52:47 51°14.801 2°54.661 330.8 12.4 326 11.6
2012-03-27 06:52:53 51°14.818 2°54.642 331.1 12.4 325 11.5
2012-03-27 06:52:58 51°14.832 2°54.627 331.1 12.4 326 11.7
2012-03-27 06:53:03 51°14.847 2°54.613 332.7 12.4 329 11.6
2012-03-27 06:53:08 51°14.862 2°54.599 335 12.4 331 11.7
2012-03-27 06:53:13 51°14.877 2°54.586 336.7 12.3 332 11.6
2012-03-27 06:53:18 51°14.892 2°54.573 337.5 12.4 332 11.7
2012-03-27 06:53:23 51°14.907 2°54.56 337.6 12.3 331 11.6
2012-03-27 06:53:28 51°14.922 2°54.547 337.6 12.3 331 11.5
2012-03-27 06:53:33 51°14.938 2°54.535 337.5 12.3 332 11.5
2012-03-27 06:53:38 51°14.952 2°54.521 337.2 12.3 331 11.4
2012-03-27 06:53:43 51°14.967 2°54.508 336.8 12.3 330 11.4
2012-03-27 06:53:48 51°14.982 2°54.494 335.8 12.3 329 11.2
2012-03-27 06:53:53 51°14.997 2°54.479 334.8 12.3 327 11.3
2012-03-27 06:53:58 51°15.011 2°54.465 333.5 12.3 327 11.3
2012-03-27 06:54:03 51°15.025 2°54.449 332 12.3 326 11.2
2012-03-27 06:54:08 51°15.039 2°54.434 331.1 12.3 327 11.2
2012-03-27 06:54:13 51°15.054 2°54.419 331.8 12.3 328 11.3
2012-03-27 06:54:18 51°15.069 2°54.407 333.5 12.4 330 11.2
2012-03-27 06:54:23 51°15.084 2°54.393 334.5 12.4 330 11.1
2012-03-27 06:54:28 51°15.099 2°54.38 335.6 12.3 333 11.1
2012-03-27 06:54:33 51°15.114 2°54.368 337.6 12.3 334 11.1
2012-03-27 06:54:38 51°15.13 2°54.358 339.8 12.3 337 11.1
2012-03-27 06:54:43 51°15.146 2°54.348 342.4 12.3 339 10.9
2012-03-27 06:54:47 51°15.159 2°54.341 344.8 12.2 341 10.8
2012-03-27 06:54:53 51°15.177 2°54.331 347.4 12 343 10.5
2012-03-27 06:54:58 51°15.194 2°54.324 349.3 12.1 344 10.5
2012-03-27 06:55:03 51°15.21 2°54.316 350.3 12.1 344 10
2012-03-27 06:55:08 51°15.226 2°54.309 350.5 12 344 9.9
2012-03-27 06:55:13 51°15.242 2°54.302 350.7 12 344 9.7
2012-03-27 06:55:18 51°15.258 2°54.295 350.9 12 344 9.7
2012-03-27 06:55:23 51°15.275 2°54.289 351.2 12.1 346 9.7
2012-03-27 06:55:28 51°15.291 2°54.282 351.7 12.1 346 9.6
2012-03-27 06:55:33 51°15.307 2°54.276 352.8 12 347 9.5
2012-03-27 06:55:38 51°15.323 2°54.271 353.8 12 348 9.4
2012-03-27 06:55:43 51°15.34 2°54.266 354.5 12.1 349 9.5
2012-03-27 06:55:48 51°15.356 2°54.261 355.5 12.1 350 9.6
2012-03-27 06:55:53 51°15.373 2°54.258 356.2 12.1 351 9.5
2012-03-27 06:55:58 51°15.389 2°54.254 357.3 12 353 9.4
2012-03-27 06:56:03 51°15.405 2°54.251 359 11.9 354 9.7
2012-03-27 06:56:08 51°15.421 2°54.248 0.6 11.8 355 9.6
2012-03-27 06:56:13 51°15.438 2°54.247 1.6 11.9 356 9.6
2012-03-27 06:56:18 51°15.455 2°54.245 2.3 11.9 356 9.6
2012-03-27 06:56:23 51°15.471 2°54.243 2.4 11.9 357 9.7
2012-03-27 06:56:28 51°15.488 2°54.242 2.6 11.9 357 9.8
2012-03-27 06:56:33 51°15.504 2°54.24 2.7 11.9 357 9.9
2012-03-27 06:56:38 51°15.52 2°54.239 2.9 11.9 357 9.9
2012-03-27 06:56:43 51°15.537 2°54.237 2.9 12 357 10
2012-03-27 06:56:48 51°15.553 2°54.235 3 11.9 356 10
2012-03-27 06:56:53 51°15.57 2°54.232 1.5 12 354 9.9
2012-03-27 06:56:58 51°15.586 2°54.229 359.6 12 352 10.1
2012-03-27 06:57:03 51°15.603 2°54.225 358.2 12 350 10
2012-03-27 06:57:07 51°15.616 2°54.221 357.1 11.9 349 10.1
2012-03-27 06:57:13 51°15.636 2°54.214 356 12 348 10.1
2012-03-27 06:57:18 51°15.652 2°54.209 354.9 12.1 348 10.1
2012-03-27 06:57:23 51°15.668 2°54.203 354.6 12 348 10
2012-03-27 06:57:28 51°15.684 2°54.197 354.3 12 347 10.2
2012-03-27 06:57:33 51°15.7 2°54.19 353.6 12 347 10.2
2012-03-27 06:57:38 51°15.717 2°54.184 353.3 12 347 10.2
2012-03-27 06:57:43 51°15.733 2°54.179 353.5 12 348 10.2
2012-03-27 06:57:48 51°15.75 2°54.174 353.8 12.1 349 10.2
2012-03-27 06:57:53 51°15.766 2°54.169 354.7 12 349 10.3
2012-03-27 06:57:58 51°15.783 2°54.165 355.6 12.1 351 10.3
2012-03-27 06:58:03 51°15.799 2°54.161 356.5 12 351 10.3
2012-03-27 06:58:08 51°15.816 2°54.157 357.5 11.9 352 10.3
2012-03-27 06:58:13 51°15.832 2°54.154 358.3 12 354 10.4
2012-03-27 06:58:18 51°15.849 2°54.152 359 12 354 10.4
2012-03-27 06:58:23 51°15.865 2°54.149 0.1 12 355 10.4
2012-03-27 06:58:28 51°15.882 2°54.147 0.6 12 355 10.5
2012-03-27 06:58:33 51°15.898 2°54.145 1.4 11.9 356 10.5
2012-03-27 06:58:38 51°15.914 2°54.144 2.5 11.9 357 10.6
2012-03-27 06:58:43 51°15.931 2°54.143 3.9 11.9 359 10.6
2012-03-27 06:58:47 51°15.944 2°54.144 5.7 11.9 2 10.6
2012-03-27 06:58:53 51°15.964 2°54.147 8.5 11.8 6 10.6
2012-03-27 06:58:58 51°15.98 2°54.152 12.3 11.6 10 10.6
2012-03-27 06:59:03 51°15.995 2°54.158 16.2 11.5 13 10.6
2012-03-27 06:59:07 51°16.007 2°54.162 19 11.3 13 10.7
2012-03-27 06:59:13 51°16.025 2°54.17 19.5 11 14 10.7
2012-03-27 06:59:18 51°16.04 2°54.176 19.7 10.7 14 10.8
2012-03-27 06:59:23 51°16.054 2°54.182 20.4 10.2 15 10.8
2012-03-27 06:59:28 51°16.067 2°54.187 21.1 9.7 15 10.9
2012-03-27 06:59:33 51°16.079 2°54.193 21.8 9.1 16 10.9
2012-03-27 06:59:38 51°16.09 2°54.198 22.2 8.6 15 11
2012-03-27 06:59:43 51°16.101 2°54.202 22.2 8.2 15 11
2012-03-27 06:59:48 51°16.111 2°54.206 22.1 7.8 14 10.9
2012-03-27 06:59:53 51°16.122 2°54.21 21.7 7.5 13 11
2012-03-27 06:59:58 51°16.132 2°54.214 21 7.3 12 11.1
2012-03-27 07:00:03 51°16.141 2°54.217 20.1 7.1 12 11.1
2012-03-27 07:00:08 51°16.15 2°54.219 19.2 6.9 11 11
2012-03-27 07:00:13 51°16.159 2°54.222 18.5 6.6 10 11
2012-03-27 07:00:18 51°16.168 2°54.224 18.2 6.5 9 11
2012-03-27 07:00:23 51°16.177 2°54.227 17.9 6.3 10 11.1
2012-03-27 07:00:28 51°16.185 2°54.228 17.8 6 9 11.1
2012-03-27 07:00:33 51°16.193 2°54.231 17.8 5.8 9 11.1
2012-03-27 07:00:38 51°16.201 2°54.232 17.8 5.6 9 11.2
2012-03-27 07:00:43 51°16.208 2°54.234 18 5.5 9 11.2
2012-03-27 07:00:48 51°16.215 2°54.235 18.1 5.2 8 11.1
2012-03-27 07:00:53 51°16.222 2°54.237 18.4 5.1 8 11.1
2012-03-27 07:00:58 51°16.229 2°54.239 18.6 5 9 11.1
2012-03-27 07:01:03 51°16.235 2°54.241 19 4.7 9 11.2
2012-03-27 07:01:07 51°16.24 2°54.242 19.3 4.6 9 11.2
2012-03-27 07:01:13 51°16.248 2°54.243 19.7 4.4 8 11.2
2012-03-27 07:01:18 51°16.253 2°54.245 20.3 4.3 9 11.3
2012-03-27 07:01:23 51°16.259 2°54.247 21.1 4.2 11 11.2
2012-03-27 07:01:27 51°16.264 2°54.248 22.1 4.1 12 11.2
2012-03-27 07:01:33 51°16.27 2°54.251 23.3 4 13 11.2
2012-03-27 07:01:38 51°16.275 2°54.253 24.4 4 16 11.2
2012-03-27 07:01:43 51°16.281 2°54.256 25.4 3.9 17 11.2
2012-03-27 07:01:48 51°16.285 2°54.259 29.1 3.7 23 11.2
2012-03-27 07:01:53 51°16.29 2°54.262 32.9 3.5 27 11.2
2012-03-27 07:01:58 51°16.293 2°54.266 39.2 3.2 32 11.2
2012-03-27 07:02:03 51°16.297 2°54.27 44.1 3 37 11.2
2012-03-27 07:02:08 51°16.3 2°54.274 48.6 2.8 41 11.3
2012-03-27 07:02:13 51°16.303 2°54.278 51.5 2.6 44 11.2
2012-03-27 07:02:18 51°16.305 2°54.282 55.5 2.5 49 11.3
2012-03-27 07:02:23 51°16.307 2°54.287 58.7 2.4 53 11.2
2012-03-27 07:02:28 51°16.308 2°54.291 62.1 2.2 58 11.3
2012-03-27 07:02:33 51°16.31 2°54.295 65.6 2 61 11.3
2012-03-27 07:02:38 51°16.311 2°54.298 68.4 1.7 64 11.2
2012-03-27 07:02:43 51°16.311 2°54.3 71.3 1.1 65 11.2
2012-03-27 07:02:48 51°16.312 2°54.302 72.5 0.7 57 11.2
2012-03-27 07:02:53 51°16.313 2°54.302 72.5 0.4 52 11.2
2012-03-27 07:02:58 51°16.313 2°54.302 73.2 0.1 358 11.2
2012-03-27 07:03:03 51°16.313 2°54.302 75.6 0.2 261 11.2
2012-03-27 07:03:08 51°16.313 2°54.302 79.7 0.2 283 11.2
2012-03-27 07:03:13 51°16.313 2°54.301 82.8 0.2 255 11.2
2012-03-27 07:03:18 51°16.312 2°54.3 85 0.3 249 11.3
2012-03-27 07:03:23 51°16.312 2°54.299 88 0.4 241 11.3
2012-03-27 07:03:27 51°16.312 2°54.299 90.2 0.3 250 11.3
2012-03-27 07:03:33 51°16.311 2°54.297 92.1 0.5 235 11.2
2012-03-27 07:03:38 51°16.311 2°54.297 93.9 0.4 239 11.3
2012-03-27 07:03:43 51°16.31 2°54.296 95.4 0.5 234 11.2
2012-03-27 07:03:48 51°16.31 2°54.295 97.1 0.5 237 11.2
2012-03-27 07:03:53 51°16.31 2°54.294 98.9 0.4 235 11.2
2012-03-27 07:03:58 51°16.309 2°54.293 100.5 0.6 237 11.2
2012-03-27 07:04:03 51°16.308 2°54.292 101.7 0.6 233 11.1
2012-03-27 07:04:08 51°16.308 2°54.291 103.2 0.6 236 11.2
2012-03-27 07:04:13 51°16.307 2°54.289 104.5 0.7 232 11.2
2012-03-27 07:04:18 51°16.307 2°54.288 106.4 0.7 235 11.1
2012-03-27 07:04:23 51°16.306 2°54.287 107.5 0.7 232 11.3
2012-03-27 07:04:28 51°16.306 2°54.286 109.3 0.7 234 11.3
2012-03-27 07:04:33 51°16.305 2°54.285 110.4 0.8 232 11.2
2012-03-27 07:04:38 51°16.304 2°54.284 112 0.8 233 11.1
2012-03-27 07:04:43 51°16.304 2°54.283 113.4 0.8 232 11.2
2012-03-27 07:04:48 51°16.303 2°54.281 115.2 0.7 232 11.3
2012-03-27 07:04:53 51°16.303 2°54.28 116.6 0.8 229 11.2
2012-03-27 07:04:58 51°16.302 2°54.279 117.7 0.7 233 11.1
2012-03-27 07:05:03 51°16.301 2°54.277 119.4 0.8 233 11.1
2012-03-27 07:05:08 51°16.301 2°54.276 121.2 0.8 232 11.3
2012-03-27 07:05:13 51°16.3 2°54.274 122.2 0.8 233 11.2
2012-03-27 07:05:18 51°16.299 2°54.273 123.8 0.9 234 11.2
2012-03-27 07:05:23 51°16.299 2°54.272 125.3 0.8 235 11.2
2012-03-27 07:05:28 51°16.298 2°54.27 126.8 0.8 233 11.2
2012-03-27 07:05:33 51°16.297 2°54.269 127.8 0.8 233 11.2
2012-03-27 07:05:38 51°16.296 2°54.267 129.3 0.8 234 11.2
2012-03-27 07:05:43 51°16.295 2°54.265 130.7 1 234 11.2
2012-03-27 07:05:47 51°16.295 2°54.264 131.8 1 234 11.2
2012-03-27 07:05:53 51°16.294 2°54.262 133.1 0.9 235 11.2
2012-03-27 07:05:58 51°16.293 2°54.261 134.4 0.9 233 11.2
2012-03-27 07:06:03 51°16.293 2°54.259 135.6 0.8 235 11.2
2012-03-27 07:06:08 51°16.292 2°54.257 136.6 0.9 233 11.2
2012-03-27 07:06:13 51°16.291 2°54.255 137.8 1 235 11.2
2012-03-27 07:06:18 51°16.29 2°54.254 139.1 0.9 234 11.2
2012-03-27 07:06:23 51°16.29 2°54.252 140.1 0.8 234 11.2
2012-03-27 07:06:28 51°16.289 2°54.25 141.2 1 234 11.2
2012-03-27 07:06:33 51°16.288 2°54.248 142.3 1 234 11.2
2012-03-27 07:06:38 51°16.287 2°54.247 143.3 1 234 11.2
2012-03-27 07:06:43 51°16.287 2°54.245 144.3 1 235 11.2
2012-03-27 07:06:48 51°16.286 2°54.243 145.2 1 235 11.2
2012-03-27 07:06:53 51°16.285 2°54.242 146.2 1 236 11.2
2012-03-27 07:06:58 51°16.284 2°54.24 147.1 0.9 236 11.2
2012-03-27 07:07:03 51°16.284 2°54.238 148.1 1 236 11.2
2012-03-27 07:07:08 51°16.283 2°54.236 149.1 1 234 11.2
2012-03-27 07:07:13 51°16.282 2°54.234 149.6 1 236 11.2
2012-03-27 07:07:18 51°16.281 2°54.232 150.4 1.1 236 11.2
2012-03-27 07:07:23 51°16.28 2°54.23 151.2 1 237 11.2
2012-03-27 07:07:28 51°16.28 2°54.229 151.9 1 236 11.1
2012-03-27 07:07:33 51°16.279 2°54.227 152.5 1 235 11.2
2012-03-27 07:07:38 51°16.278 2°54.225 153.1 1.1 237 11.2
2012-03-27 07:07:43 51°16.277 2°54.223 153.6 1 238 11.2
2012-03-27 07:07:48 51°16.276 2°54.221 154.1 1.1 237 11.2
2012-03-27 07:07:53 51°16.276 2°54.219 154.7 1 238 11.2
2012-03-27 07:07:58 51°16.275 2°54.218 155.2 1 237 11.2
2012-03-27 07:08:03 51°16.274 2°54.216 155.9 1 237 11.2
2012-03-27 07:08:08 51°16.273 2°54.213 156.3 1.1 237 11.2
2012-03-27 07:08:13 51°16.272 2°54.212 156.9 1.1 236 11.1
2012-03-27 07:08:18 51°16.272 2°54.21 157.5 1.1 237 11.1
2012-03-27 07:08:23 51°16.271 2°54.208 157.9 1 236 11.2
2012-03-27 07:08:28 51°16.27 2°54.206 158.3 1 237 11.2
2012-03-27 07:08:33 51°16.269 2°54.204 158.8 1 237 11.2
2012-03-27 07:08:38 51°16.268 2°54.202 159.1 1.1 237 11.1
2012-03-27 07:08:43 51°16.267 2°54.2 159.4 1.1 236 11.2
2012-03-27 07:08:48 51°16.267 2°54.198 159.8 1.1 237 11.2
2012-03-27 07:08:53 51°16.266 2°54.196 160 1 238 11.1
2012-03-27 07:08:58 51°16.265 2°54.194 160.4 1.1 236 11.1
2012-03-27 07:09:03 51°16.264 2°54.192 160.6 1.1 237 11.1
2012-03-27 07:09:08 51°16.264 2°54.19 160.9 1 237 11.2
2012-03-27 07:09:13 51°16.263 2°54.188 161.1 1.1 237 11.1
2012-03-27 07:09:18 51°16.262 2°54.186 161.3 1.1 237 11.2
2012-03-27 07:09:23 51°16.261 2°54.184 161.4 1.1 238 11.2
2012-03-27 07:09:28 51°16.261 2°54.182 161.5 1.1 237 11.2
2012-03-27 07:09:33 51°16.26 2°54.18 161.8 1.1 237 11.2
2012-03-27 07:09:38 51°16.259 2°54.178 161.9 1.1 238 11.2
2012-03-27 07:09:43 51°16.258 2°54.176 162 1.1 236 11.1
2012-03-27 07:09:48 51°16.258 2°54.174 162 1 238 11.1
2012-03-27 07:09:53 51°16.257 2°54.173 162.2 1 239 11.2
2012-03-27 07:09:58 51°16.256 2°54.17 162.2 1.1 238 11.2
2012-03-27 07:10:03 51°16.255 2°54.168 162.3 1.1 238 11.1
2012-03-27 07:10:07 51°16.255 2°54.167 162.4 1 238 11.1
2012-03-27 07:10:13 51°16.254 2°54.164 162.5 1.2 237 11.2
2012-03-27 07:10:18 51°16.253 2°54.162 162.5 1.1 240 11.1
2012-03-27 07:10:23 51°16.252 2°54.16 162.4 1.1 238 11.2
2012-03-27 07:10:28 51°16.252 2°54.158 162.4 1 240 11.1
2012-03-27 07:10:33 51°16.251 2°54.156 162.3 1.1 239 11.1
2012-03-27 07:10:38 51°16.25 2°54.155 162.2 1 239 11.1
2012-03-27 07:10:43 51°16.249 2°54.153 162.1 1 238 11.1
2012-03-27 07:10:48 51°16.249 2°54.151 162 1 238 11.1
2012-03-27 07:10:53 51°16.248 2°54.149 162 1 238 11.1
2012-03-27 07:10:58 51°16.247 2°54.147 161.9 1.1 238 11.2
2012-03-27 07:11:03 51°16.246 2°54.145 161.9 1.1 240 11.1
2012-03-27 07:11:08 51°16.245 2°54.143 161.8 1.1 239 11.1
2012-03-27 07:11:13 51°16.245 2°54.141 161.7 1.1 239 11.2
2012-03-27 07:11:18 51°16.244 2°54.138 161.7 1.1 240 11.2
2012-03-27 07:11:23 51°16.243 2°54.137 161.6 1.1 239 11.1
2012-03-27 07:11:28 51°16.242 2°54.135 161.6 1.1 237 11.1
2012-03-27 07:11:33 51°16.241 2°54.132 161.4 1.1 238 11.1
2012-03-27 07:11:38 51°16.241 2°54.13 161.3 1.1 239 11.2
2012-03-27 07:11:43 51°16.24 2°54.129 161.1 1 240 11.1
2012-03-27 07:11:48 51°16.239 2°54.126 161.1 1.1 239 11.1
2012-03-27 07:11:53 51°16.238 2°54.124 160.9 1.1 238 11.1
2012-03-27 07:11:58 51°16.238 2°54.122 160.8 1.1 239 11
2012-03-27 07:12:03 51°16.237 2°54.12 160.8 1.1 238 11.1
2012-03-27 07:12:08 51°16.236 2°54.118 160.7 1.1 238 11.1
2012-03-27 07:12:13 51°16.235 2°54.116 160.7 1.1 239 11.1
2012-03-27 07:12:18 51°16.235 2°54.114 160.6 1.1 239 11.1
2012-03-27 07:12:23 51°16.234 2°54.112 160.6 1 238 11
2012-03-27 07:12:28 51°16.233 2°54.11 160.6 1.1 239 11.1
2012-03-27 07:12:33 51°16.232 2°54.108 160.5 1.1 240 11.1
2012-03-27 07:12:38 51°16.232 2°54.106 160.5 1.1 239 11.1
2012-03-27 07:12:43 51°16.231 2°54.104 160.5 1.1 238 11.1
2012-03-27 07:12:48 51°16.23 2°54.102 160.4 1.1 239 11.1
2012-03-27 07:12:53 51°16.229 2°54.1 160.4 1.1 240 11.1
2012-03-27 07:12:58 51°16.228 2°54.098 160.3 1.1 239 11.1
2012-03-27 07:13:03 51°16.228 2°54.096 160.3 1.1 239 11.2
2012-03-27 07:13:08 51°16.227 2°54.094 160.3 1 241 11.1
2012-03-27 07:13:13 51°16.226 2°54.092 160.3 1.1 239 11.1
2012-03-27 07:13:18 51°16.226 2°54.09 160.2 1 241 11.1
2012-03-27 07:13:23 51°16.225 2°54.088 160.2 1 239 11
2012-03-27 07:13:28 51°16.224 2°54.085 160.2 1.2 240 11
2012-03-27 07:13:33 51°16.223 2°54.084 160.2 0.9 239 11
2012-03-27 07:13:38 51°16.223 2°54.082 160.1 1 240 11.1
2012-03-27 07:13:43 51°16.222 2°54.08 160.1 1 240 11.1
2012-03-27 07:13:48 51°16.221 2°54.078 160.1 1.1 240 11.1
2012-03-27 07:13:53 51°16.22 2°54.075 160 1.1 240 11.1
2012-03-27 07:13:58 51°16.219 2°54.073 160 1.1 240 11.1
2012-03-27 07:14:03 51°16.219 2°54.071 159.9 1.1 239 11
2012-03-27 07:14:08 51°16.218 2°54.069 159.9 1.1 239 11
2012-03-27 07:14:13 51°16.217 2°54.067 159.8 1.1 238 11.1
2012-03-27 07:14:18 51°16.216 2°54.065 159.8 1.1 240 11.1
2012-03-27 07:14:23 51°16.216 2°54.063 159.8 1 240 11
2012-03-27 07:14:28 51°16.215 2°54.061 159.8 1.1 240 11.1
2012-03-27 07:14:33 51°16.214 2°54.06 159.9 1 239 11.1
2012-03-27 07:14:38 51°16.213 2°54.057 159.9 1 238 10.9
2012-03-27 07:14:43 51°16.212 2°54.055 160 1.1 238 11
2012-03-27 07:14:48 51°16.212 2°54.053 160 1.1 238 11.1
2012-03-27 07:14:53 51°16.211 2°54.051 160.1 1.1 239 11.1
2012-03-27 07:14:58 51°16.21 2°54.049 160.2 1.1 239 11
2012-03-27 07:15:03 51°16.209 2°54.047 160.2 1.1 240 11
2012-03-27 07:15:08 51°16.209 2°54.045 160.2 1.2 240 11
2012-03-27 07:15:13 51°16.208 2°54.043 160.3 1.2 240 11
2012-03-27 07:15:18 51°16.207 2°54.041 160.4 1.1 239 11
2012-03-27 07:15:23 51°16.206 2°54.039 160.6 1.1 239 11.1
2012-03-27 07:15:27 51°16.206 2°54.037 160.6 1.1 238 11
2012-03-27 07:15:33 51°16.205 2°54.035 161 1.1 239 11
2012-03-27 07:15:38 51°16.204 2°54.033 161.1 1.1 240 11.1
2012-03-27 07:15:43 51°16.203 2°54.03 161.2 1.1 240 11
2012-03-27 07:15:48 51°16.202 2°54.028 161.3 1.1 239 11.1
2012-03-27 07:15:53 51°16.201 2°54.026 161.4 1.1 237 11
2012-03-27 07:15:58 51°16.201 2°54.024 161.5 1.2 238 11
2012-03-27 07:16:03 51°16.2 2°54.022 161.7 1.1 239 11
2012-03-27 07:16:08 51°16.199 2°54.02 161.7 1.1 239 11.1
2012-03-27 07:16:13 51°16.198 2°54.018 161.8 1.1 239 11
2012-03-27 07:16:18 51°16.198 2°54.016 161.9 1.1 240 11
2012-03-27 07:16:23 51°16.197 2°54.014 161.9 1 239 11
2012-03-27 07:16:28 51°16.196 2°54.012 162 1.1 239 11
2012-03-27 07:16:33 51°16.195 2°54.009 162.2 1.1 239 11.1
2012-03-27 07:16:38 51°16.194 2°54.007 162.4 1.2 240 11.1
2012-03-27 07:16:43 51°16.193 2°54.005 162.5 1.1 235 11.1
2012-03-27 07:16:48 51°16.192 2°54.003 162.6 1.2 226 11.1
2012-03-27 07:16:53 51°16.191 2°54.002 161.9 1.2 218 11
2012-03-27 07:16:58 51°16.19 2°54 160.2 1.3 209 11
2012-03-27 07:17:03 51°16.188 2°53.999 157.7 1.4 198 11
2012-03-27 07:17:08 51°16.185 2°53.999 154.3 1.6 187 11
2012-03-27 07:17:13 51°16.183 2°53.999 149.6 1.7 177 11
2012-03-27 07:17:18 51°16.181 2°54 144.2 1.8 169 11.1
2012-03-27 07:17:23 51°16.178 2°54.001 138.8 1.8 162 10.9
2012-03-27 07:17:28 51°16.176 2°54.003 133.5 1.9 155 11
2012-03-27 07:17:33 51°16.174 2°54.006 127.8 1.9 145 11.1
2012-03-27 07:17:38 51°16.172 2°54.009 122.3 2 137 11
2012-03-27 07:17:43 51°16.17 2°54.012 116.2 2 129 11
2012-03-27 07:17:47 51°16.169 2°54.015 110.7 2 121 11
2012-03-27 07:17:53 51°16.168 2°54.021 104.8 2.1 111 11
2012-03-27 07:17:58 51°16.168 2°54.025 98.9 2.1 101 10.9
2012-03-27 07:18:03 51°16.167 2°54.03 93 2.1 93 10.9
2012-03-27 07:18:08 51°16.168 2°54.035 86.9 2.1 85 10.9
2012-03-27 07:18:13 51°16.168 2°54.039 81 2.1 78 11
2012-03-27 07:18:18 51°16.169 2°54.044 75 2.4 69 11
2012-03-27 07:18:23 51°16.172 2°54.051 69.8 3.2 62 11
2012-03-27 07:18:28 51°16.175 2°54.057 63.8 3.9 52 11
2012-03-27 07:18:33 51°16.179 2°54.065 57.6 4.5 49 10.9
2012-03-27 07:18:38 51°16.184 2°54.072 52.8 5.1 43 10.9
2012-03-27 07:18:43 51°16.19 2°54.081 48.9 5.7 42 10.9
2012-03-27 07:18:48 51°16.197 2°54.089 47.1 6.2 39 10.8
2012-03-27 07:18:53 51°16.204 2°54.099 45.9 6.6 40 10.9
2012-03-27 07:18:58 51°16.211 2°54.108 45.2 6.9 38 10.9
2012-03-27 07:19:03 51°16.219 2°54.118 44.9 7.2 39 10.9
2012-03-27 07:19:08 51°16.228 2°54.129 44.4 7.5 37 10.9
2012-03-27 07:19:13 51°16.236 2°54.139 43.6 7.7 38 10.9
2012-03-27 07:19:18 51°16.245 2°54.15 43.2 8 36 10.9
2012-03-27 07:19:23 51°16.254 2°54.16 42.9 8.2 37 11
2012-03-27 07:19:28 51°16.263 2°54.171 42.7 8.2 37 10.9
2012-03-27 07:19:33 51°16.272 2°54.183 42.9 8.4 39 11
2012-03-27 07:19:38 51°16.281 2°54.195 44.2 8.4 41 11.2
2012-03-27 07:19:43 51°16.29 2°54.207 46.3 8.4 42 11.1
2012-03-27 07:19:47 51°16.297 2°54.218 47.9 8.5 44 11.2
2012-03-27 07:19:53 51°16.307 2°54.234 49.2 8.6 45 11.2
2012-03-27 07:19:58 51°16.315 2°54.248 50.7 8.6 47 11.3
2012-03-27 07:20:03 51°16.323 2°54.262 52 8.5 49 11.3
2012-03-27 07:20:08 51°16.33 2°54.276 53.8 8.5 51 11.1
2012-03-27 07:20:13 51°16.337 2°54.291 55 8.5 53 11.1
2012-03-27 07:20:18 51°16.344 2°54.307 56.7 8.6 55 11
2012-03-27 07:20:23 51°16.35 2°54.322 59.5 7.9 60 10.9
2012-03-27 07:20:28 51°16.353 2°54.336 64.4 7.1 64 11
2012-03-27 07:20:33 51°16.357 2°54.35 67.6 6.4 70 11.1
2012-03-27 07:20:38 51°16.359 2°54.362 72.5 5.8 75 11
2012-03-27 07:20:43 51°16.36 2°54.373 78.6 5.1 81 10.9
2012-03-27 07:20:48 51°16.36 2°54.383 83.1 4.6 86 11.1
2012-03-27 07:20:53 51°16.361 2°54.393 86.1 4.2 88 11.1
2012-03-27 07:20:58 51°16.36 2°54.401 88.3 3.9 93 11.1
2012-03-27 07:21:03 51°16.36 2°54.409 91.7 3.6 96 11.2
2012-03-27 07:21:08 51°16.359 2°54.415 95.4 3.1 105 11
2012-03-27 07:21:13 51°16.357 2°54.421 98.8 2.8 108 11.2
2012-03-27 07:21:18 51°16.356 2°54.427 101.7 2.5 114 11.3
2012-03-27 07:21:23 51°16.354 2°54.43 105.7 2.2 122 11.3
2012-03-27 07:21:28 51°16.352 2°54.433 110.6 1.9 133 11.3
2012-03-27 07:21:33 51°16.35 2°54.435 113.8 1.5 142 11.2
2012-03-27 07:21:38 51°16.349 2°54.437 117.2 1.2 150 11
2012-03-27 07:21:43 51°16.348 2°54.437 122 1 171 11.1
2012-03-27 07:21:47 51°16.347 2°54.437 126 0.8 192 11.2
2012-03-27 07:21:53 51°16.345 2°54.436 129.3 0.9 206 11.3
2012-03-27 07:21:58 51°16.344 2°54.435 133.7 0.9 207 11.3
2012-03-27 07:22:03 51°16.343 2°54.434 136.3 1 211 11.2
2012-03-27 07:22:08 51°16.342 2°54.433 140 0.9 213 11.2
2012-03-27 07:22:13 51°16.341 2°54.431 142.3 1 217 11.3
2012-03-27 07:22:18 51°16.34 2°54.43 145.4 1 218 11.2
2012-03-27 07:22:23 51°16.339 2°54.429 147.4 1 219 11.2
2012-03-27 07:22:28 51°16.338 2°54.427 149.6 1 220 11.1
2012-03-27 07:22:33 51°16.337 2°54.425 151.8 1.2 221 11.2
2012-03-27 07:22:38 51°16.335 2°54.423 154.1 1.3 223 11.3
2012-03-27 07:22:43 51°16.334 2°54.422 156.2 1.1 225 11.3
2012-03-27 07:22:48 51°16.333 2°54.42 158.3 1.1 225 11.2
2012-03-27 07:22:53 51°16.332 2°54.418 160.4 1.1 227 11.1
2012-03-27 07:22:58 51°16.331 2°54.416 162.4 1.2 228 11.2
2012-03-27 07:23:03 51°16.33 2°54.414 164.3 1.3 228 11.2
2012-03-27 07:23:08 51°16.329 2°54.412 166.4 1.2 229 11.1
2012-03-27 07:23:13 51°16.328 2°54.41 167.7 1.2 231 11
2012-03-27 07:23:18 51°16.327 2°54.408 169.3 1.2 231 11
2012-03-27 07:23:23 51°16.326 2°54.405 170.8 1.2 232 11
2012-03-27 07:23:28 51°16.324 2°54.403 172.2 1.3 231 11
2012-03-27 07:23:33 51°16.323 2°54.401 173.7 1.3 232 11
2012-03-27 07:23:38 51°16.322 2°54.398 174.7 1.3 231 11
2012-03-27 07:23:43 51°16.321 2°54.396 175.7 1.4 232 11
2012-03-27 07:23:48 51°16.32 2°54.393 176.8 1.4 231 10.9
2012-03-27 07:23:53 51°16.318 2°54.391 177.8 1.4 232 10.9
2012-03-27 07:23:58 51°16.317 2°54.389 178.6 1.4 232 11
2012-03-27 07:24:03 51°16.316 2°54.386 179.4 1.4 233 11
2012-03-27 07:24:07 51°16.315 2°54.384 180.1 1.3 233 10.9
2012-03-27 07:24:13 51°16.314 2°54.381 180.7 1.4 233 11
2012-03-27 07:24:18 51°16.313 2°54.379 181.3 1.4 233 10.9
2012-03-27 07:24:23 51°16.311 2°54.376 181.7 1.5 234 10.9
2012-03-27 07:24:28 51°16.311 2°54.374 182.2 1.4 233 11
2012-03-27 07:24:33 51°16.309 2°54.372 182.7 1.4 235 11
2012-03-27 07:24:38 51°16.308 2°54.369 182.9 1.4 234 11
2012-03-27 07:24:43 51°16.307 2°54.367 183.3 1.4 234 11
2012-03-27 07:24:48 51°16.306 2°54.364 183.4 1.4 234 11
2012-03-27 07:24:53 51°16.305 2°54.361 183.7 1.5 234 11
2012-03-27 07:24:58 51°16.304 2°54.359 183.7 1.4 234 11.1
2012-03-27 07:25:03 51°16.303 2°54.357 183.7 1.4 235 11.1
2012-03-27 07:25:08 51°16.302 2°54.354 183.7 1.4 236 11
2012-03-27 07:25:13 51°16.301 2°54.351 183.6 1.4 234 11
2012-03-27 07:25:18 51°16.299 2°54.349 183.4 1.4 234 10.9
2012-03-27 07:25:23 51°16.298 2°54.346 183.3 1.4 234 10.9
2012-03-27 07:25:28 51°16.297 2°54.343 183.1 1.5 235 10.9
2012-03-27 07:25:33 51°16.296 2°54.341 183 1.4 234 10.9
2012-03-27 07:25:38 51°16.295 2°54.338 182.7 1.4 234 10.9
2012-03-27 07:25:43 51°16.293 2°54.336 182.5 1.4 232 10.9
2012-03-27 07:25:48 51°16.292 2°54.333 182.3 1.4 234 10.9
2012-03-27 07:25:53 51°16.291 2°54.33 182.2 1.4 234 10.9
2012-03-27 07:25:58 51°16.29 2°54.328 182.1 1.4 236 10.9
2012-03-27 07:26:03 51°16.289 2°54.325 181.8 1.4 234 11.2
2012-03-27 07:26:07 51°16.288 2°54.323 181.7 1.4 233 11.1
2012-03-27 07:26:13 51°16.287 2°54.32 181.5 1.4 235 11
2012-03-27 07:26:18 51°16.286 2°54.317 181.4 1.4 237 10.9
2012-03-27 07:26:23 51°16.284 2°54.315 181 1.4 236 11
2012-03-27 07:26:28 51°16.283 2°54.312 180.9 1.4 236 10.9
2012-03-27 07:26:33 51°16.282 2°54.309 180.7 1.4 238 10.9
2012-03-27 07:26:38 51°16.281 2°54.307 180.5 1.4 237 11
2012-03-27 07:26:43 51°16.28 2°54.305 180.3 1.3 234 11
2012-03-27 07:26:48 51°16.279 2°54.302 180.1 1.4 236 11.1
2012-03-27 07:26:53 51°16.278 2°54.299 179.9 1.4 234 11
2012-03-27 07:26:58 51°16.277 2°54.297 179.8 1.4 235 11.1
2012-03-27 07:27:03 51°16.275 2°54.294 179.6 1.4 234 11
2012-03-27 07:27:08 51°16.274 2°54.292 179.4 1.4 234 11.2
2012-03-27 07:27:13 51°16.273 2°54.289 179.3 1.4 234 11.2
2012-03-27 07:27:18 51°16.272 2°54.286 179.2 1.5 235 11
2012-03-27 07:27:23 51°16.271 2°54.284 179 1.4 233 10.9
2012-03-27 07:27:28 51°16.27 2°54.282 178.8 1.4 234 11
2012-03-27 07:27:33 51°16.269 2°54.279 178.7 1.3 236 10.9
2012-03-27 07:27:38 51°16.268 2°54.277 178.6 1.3 234 10.9
2012-03-27 07:27:43 51°16.267 2°54.274 178.5 1.3 235 10.9
2012-03-27 07:27:48 51°16.266 2°54.272 178.3 1.3 235 10.9
2012-03-27 07:27:53 51°16.265 2°54.269 178 1.3 237 10.9
2012-03-27 07:27:58 51°16.264 2°54.266 177.9 1.4 242 10.9
2012-03-27 07:28:03 51°16.262 2°54.264 177.9 1.5 238 10.9
2012-03-27 07:28:07 51°16.262 2°54.261 177.8 1.5 238 11
2012-03-27 07:28:13 51°16.26 2°54.259 177.8 1.4 237 11
2012-03-27 07:28:18 51°16.259 2°54.256 177.7 1.4 233 10.9
2012-03-27 07:28:23 51°16.258 2°54.254 177.7 1.4 236 10.9
2012-03-27 07:28:27 51°16.257 2°54.251 177.6 1.4 238 10.8
2012-03-27 07:28:33 51°16.256 2°54.249 177.6 1.4 237 10.8
2012-03-27 07:28:38 51°16.255 2°54.246 177.5 1.4 237 10.9
2012-03-27 07:28:43 51°16.254 2°54.243 177.5 1.5 240 10.9
2012-03-27 07:28:48 51°16.253 2°54.241 177.5 1.4 238 10.9
2012-03-27 07:28:53 51°16.252 2°54.238 177.5 1.4 238 10.8
2012-03-27 07:28:58 51°16.251 2°54.236 177.5 1.3 238 10.8
2012-03-27 07:29:03 51°16.25 2°54.233 177.5 1.3 238 10.8
2012-03-27 07:29:08 51°16.249 2°54.23 177.5 1.4 240 10.8
2012-03-27 07:29:13 51°16.248 2°54.228 177.6 1.5 240 10.9
2012-03-27 07:29:18 51°16.247 2°54.225 177.7 1.4 238 10.9
2012-03-27 07:29:23 51°16.246 2°54.223 177.7 1.4 238 10.8
2012-03-27 07:29:28 51°16.245 2°54.22 177.7 1.3 238 10.9
2012-03-27 07:29:33 51°16.244 2°54.217 177.7 1.4 240 10.9
2012-03-27 07:29:38 51°16.243 2°54.215 177.9 1.5 240 10.9
2012-03-27 07:29:43 51°16.242 2°54.213 177.9 1.4 236 10.8
2012-03-27 07:29:48 51°16.241 2°54.21 177.9 1.3 238 10.8
2012-03-27 07:29:53 51°16.24 2°54.207 177.9 1.5 242 10.8
2012-03-27 07:29:58 51°16.239 2°54.205 177.8 1.4 238 10.8
2012-03-27 07:30:03 51°16.238 2°54.202 177.8 1.3 239 10.8
2012-03-27 07:30:08 51°16.237 2°54.2 177.7 1.4 241 10.8
2012-03-27 07:30:13 51°16.236 2°54.197 177.7 1.5 241 10.8
2012-03-27 07:30:18 51°16.235 2°54.194 177.6 1.4 237 10.8
2012-03-27 07:30:23 51°16.234 2°54.192 177.6 1.3 236 10.8
2012-03-27 07:30:27 51°16.233 2°54.19 177.6 1.3 238 10.8
2012-03-27 07:30:33 51°16.232 2°54.186 177.5 1.4 245 10.8
2012-03-27 07:30:38 51°16.231 2°54.183 177.5 1.6 246 10.8
2012-03-27 07:30:43 51°16.23 2°54.18 177.4 1.6 244 10.9
2012-03-27 07:30:48 51°16.229 2°54.178 177.4 1.5 238 10.9
2012-03-27 07:30:53 51°16.228 2°54.176 177.2 1.3 239 10.9
2012-03-27 07:30:58 51°16.227 2°54.174 177.2 1.3 240 10.8
2012-03-27 07:31:03 51°16.226 2°54.171 177.2 1.4 239 10.8
2012-03-27 07:31:08 51°16.225 2°54.168 177.1 1.3 237 10.8
2012-03-27 07:31:13 51°16.224 2°54.165 177.1 1.4 238 10.8
2012-03-27 07:31:18 51°16.223 2°54.163 177.1 1.3 239 10.8
2012-03-27 07:31:23 51°16.223 2°54.16 177.1 1.4 243 10.8
2012-03-27 07:31:28 51°16.221 2°54.158 177 1.3 241 10.8
2012-03-27 07:31:33 51°16.221 2°54.155 177 1.4 242 10.8
2012-03-27 07:31:38 51°16.22 2°54.153 177 1.4 241 10.7
2012-03-27 07:31:43 51°16.219 2°54.15 177 1.4 242 10.7
2012-03-27 07:31:48 51°16.218 2°54.147 177 1.3 238 10.8
2012-03-27 07:31:53 51°16.217 2°54.145 177 1.4 239 10.8
2012-03-27 07:31:58 51°16.216 2°54.141 177 1.4 241 10.9
2012-03-27 07:32:03 51°16.215 2°54.139 177 1.4 240 10.8
2012-03-27 07:32:08 51°16.214 2°54.137 176.9 1.3 239 10.8
2012-03-27 07:32:13 51°16.213 2°54.135 176.9 1.3 239 10.8
2012-03-27 07:32:18 51°16.212 2°54.132 176.9 1.2 238 10.8
2012-03-27 07:32:23 51°16.211 2°54.129 176.9 1.4 242 10.8
2012-03-27 07:32:28 51°16.21 2°54.126 177 1.3 239 10.8
2012-03-27 07:32:33 51°16.209 2°54.123 177.1 1.3 240 10.8
2012-03-27 07:32:38 51°16.209 2°54.12 177.1 1.4 240 10.7
2012-03-27 07:32:43 51°16.208 2°54.118 177.2 1.5 242 10.8
2012-03-27 07:32:47 51°16.207 2°54.115 177.2 1.5 241 10.8
2012-03-27 07:32:53 51°16.206 2°54.112 177.3 1.4 242 10.7
2012-03-27 07:32:58 51°16.205 2°54.11 177.3 1.4 240 10.7
2012-03-27 07:33:03 51°16.204 2°54.107 177.5 1.4 242 10.8
2012-03-27 07:33:08 51°16.203 2°54.105 177.6 1.3 242 10.8
2012-03-27 07:33:13 51°16.202 2°54.102 177.7 1.4 242 10.7
2012-03-27 07:33:18 51°16.201 2°54.099 177.8 1.3 242 10.8
2012-03-27 07:33:23 51°16.2 2°54.096 177.9 1.4 243 10.7
2012-03-27 07:33:28 51°16.199 2°54.093 177.9 1.4 243 10.7
2012-03-27 07:33:33 51°16.199 2°54.091 177.9 1.4 242 10.8
2012-03-27 07:33:38 51°16.197 2°54.089 178 1.4 241 10.8
2012-03-27 07:33:43 51°16.197 2°54.086 178 1.3 242 10.8
2012-03-27 07:33:48 51°16.196 2°54.083 178 1.3 242 10.8
2012-03-27 07:33:53 51°16.195 2°54.081 178.1 1.3 241 10.7
2012-03-27 07:33:58 51°16.194 2°54.078 178.1 1.3 243 10.7
2012-03-27 07:34:03 51°16.193 2°54.075 178.1 1.4 242 10.7
2012-03-27 07:34:08 51°16.192 2°54.072 178.2 1.4 241 10.7
2012-03-27 07:34:13 51°16.191 2°54.07 178.1 1.3 240 10.7
2012-03-27 07:34:18 51°16.19 2°54.066 178.1 1.4 243 10.7
2012-03-27 07:34:23 51°16.189 2°54.064 178.1 1.4 242 10.7
2012-03-27 07:34:28 51°16.188 2°54.061 178.2 1.4 242 10.7
2012-03-27 07:34:33 51°16.188 2°54.058 178.1 1.4 243 10.7
2012-03-27 07:34:38 51°16.187 2°54.056 178.1 1.4 242 10.7
2012-03-27 07:34:43 51°16.186 2°54.053 178 1.5 242 10.7
2012-03-27 07:34:47 51°16.185 2°54.051 178 1.4 244 10.7
2012-03-27 07:34:53 51°16.184 2°54.047 178.1 1.4 243 10.7
2012-03-27 07:34:58 51°16.183 2°54.044 178.2 1.5 244 10.7
2012-03-27 07:35:03 51°16.182 2°54.042 178.2 1.5 243 10.7
2012-03-27 07:35:08 51°16.181 2°54.039 178.2 1.4 242 10.8
2012-03-27 07:35:13 51°16.18 2°54.036 178.2 1.4 244 10.8
2012-03-27 07:35:18 51°16.179 2°54.033 178.1 1.4 242 10.7
2012-03-27 07:35:23 51°16.178 2°54.03 178 1.5 243 10.8
2012-03-27 07:35:28 51°16.177 2°54.027 178.1 1.5 243 10.8
2012-03-27 07:35:33 51°16.176 2°54.025 178.2 1.5 243 10.7
2012-03-27 07:35:38 51°16.176 2°54.022 178.2 1.4 244 10.8
2012-03-27 07:35:43 51°16.175 2°54.019 178.3 1.5 245 10.8
2012-03-27 07:35:48 51°16.174 2°54.016 178.4 1.5 243 10.7
2012-03-27 07:35:53 51°16.173 2°54.014 178.6 1.4 242 10.8
2012-03-27 07:35:58 51°16.172 2°54.011 178.7 1.3 242 10.8
2012-03-27 07:36:03 51°16.171 2°54.008 178.8 1.4 243 10.7
2012-03-27 07:36:08 51°16.17 2°54.005 178.9 1.4 243 10.8
2012-03-27 07:36:13 51°16.169 2°54.002 179.1 1.5 245 10.8
2012-03-27 07:36:18 51°16.168 2°53.999 179.3 1.5 245 10.8
2012-03-27 07:36:23 51°16.167 2°53.996 179.4 1.5 242 10.8
2012-03-27 07:36:28 51°16.166 2°53.994 179.4 1.5 239 10.8
2012-03-27 07:36:33 51°16.165 2°53.991 179.5 1.4 241 10.8
2012-03-27 07:36:38 51°16.164 2°53.988 179.6 1.3 243 10.8
2012-03-27 07:36:43 51°16.164 2°53.985 179.6 1.4 244 10.9
2012-03-27 07:36:48 51°16.162 2°53.983 179.7 1.5 243 10.8
2012-03-27 07:36:53 51°16.162 2°53.98 179.8 1.5 243 10.8
2012-03-27 07:36:58 51°16.161 2°53.977 179.8 1.4 241 10.8
2012-03-27 07:37:03 51°16.16 2°53.974 180 1.5 242 10.7
2012-03-27 07:37:07 51°16.159 2°53.972 180.1 1.4 240 10.8
2012-03-27 07:37:13 51°16.158 2°53.969 180.1 1.3 241 10.7
2012-03-27 07:37:18 51°16.157 2°53.966 180.1 1.4 244 10.7
2012-03-27 07:37:23 51°16.156 2°53.963 180.2 1.5 244 10.7
2012-03-27 07:37:28 51°16.155 2°53.961 180.3 1.2 238 10.8
2012-03-27 07:37:33 51°16.155 2°53.96 180.5 1 236 10.8
2012-03-27 07:37:38 51°16.153 2°53.955 180.5 1.2 239 10.8
2012-03-27 07:37:43 51°16.152 2°53.952 180.7 1.4 243 10.8
2012-03-27 07:37:48 51°16.152 2°53.949 180.8 1.4 244 10.8
2012-03-27 07:37:53 51°16.15 2°53.946 180.8 1.4 243 10.8
2012-03-27 07:37:58 51°16.15 2°53.943 180.9 1.5 244 10.8
2012-03-27 07:38:03 51°16.149 2°53.94 181 1.5 244 10.8
2012-03-27 07:38:08 51°16.148 2°53.937 181 1.4 242 10.8
2012-03-27 07:38:13 51°16.147 2°53.935 181 1.4 240 10.7
2012-03-27 07:38:18 51°16.146 2°53.931 181.1 1.5 244 10.8
2012-03-27 07:38:23 51°16.145 2°53.929 181.1 1.4 242 10.7
2012-03-27 07:38:28 51°16.144 2°53.925 181.2 1.6 244 10.8
2012-03-27 07:38:33 51°16.143 2°53.923 181.2 1.5 245 10.8
2012-03-27 07:38:38 51°16.142 2°53.92 181.3 1.5 243 10.7
2012-03-27 07:38:43 51°16.141 2°53.918 181.3 1.5 242 10.8
2012-03-27 07:38:48 51°16.14 2°53.915 181.3 1.4 242 10.8
2012-03-27 07:38:53 51°16.139 2°53.912 181.4 1.4 242 10.8
2012-03-27 07:38:58 51°16.138 2°53.909 181.4 1.4 242 10.8
2012-03-27 07:39:03 51°16.137 2°53.907 181.3 1.4 240 10.9
2012-03-27 07:39:07 51°16.137 2°53.904 181.3 1.5 240 10.8
2012-03-27 07:39:13 51°16.136 2°53.9 181.2 1.6 247 10.8
2012-03-27 07:39:18 51°16.135 2°53.897 181.1 1.5 245 10.8
2012-03-27 07:39:23 51°16.134 2°53.895 181.1 1.5 244 10.8
2012-03-27 07:39:28 51°16.133 2°53.892 181.1 1.4 240 10.8
2012-03-27 07:39:33 51°16.131 2°53.89 181.1 1.6 227 10.8
2012-03-27 07:39:38 51°16.129 2°53.887 180.1 1.8 219 10.8
2012-03-27 07:39:43 51°16.127 2°53.885 177.2 1.9 209 10.8
2012-03-27 07:39:48 51°16.124 2°53.882 173 2 206 10.8
2012-03-27 07:39:53 51°16.122 2°53.88 168.4 2.1 201 10.8
2012-03-27 07:39:58 51°16.119 2°53.88 163.3 2.2 194 10.8
2012-03-27 07:40:03 51°16.116 2°53.879 158.1 2.1 189 10.8
2012-03-27 07:40:08 51°16.113 2°53.879 153.1 2 187 10.8
2012-03-27 07:40:13 51°16.11 2°53.879 148.2 2 176 10.9
2012-03-27 07:40:18 51°16.107 2°53.88 143.2 2.1 171 10.8
2012-03-27 07:40:23 51°16.105 2°53.881 138.3 2 167 10.9
2012-03-27 07:40:28 51°16.102 2°53.882 132.2 2 163 10.8
2012-03-27 07:40:33 51°16.1 2°53.884 128.6 1.9 156 10.8
2012-03-27 07:40:38 51°16.097 2°53.887 123.4 2 148 10.7
2012-03-27 07:40:43 51°16.095 2°53.889 117.7 1.7 144 10.7
2012-03-27 07:40:48 51°16.094 2°53.892 112.6 1.7 137 10.8
2012-03-27 07:40:53 51°16.092 2°53.895 108.7 1.8 125 10.8
2012-03-27 07:40:58 51°16.091 2°53.898 103.8 1.7 122 10.7
2012-03-27 07:41:03 51°16.09 2°53.902 98.7 1.6 111 10.7
2012-03-27 07:41:08 51°16.09 2°53.906 92.4 1.7 103 10.7
2012-03-27 07:41:13 51°16.09 2°53.909 88.3 1.5 93 10.6
2012-03-27 07:41:18 51°16.09 2°53.912 83.1 1.5 82 10.6
2012-03-27 07:41:23 51°16.09 2°53.915 77.8 1.4 77 10.7
2012-03-27 07:41:28 51°16.092 2°53.919 72.4 1.7 67 10.7
2012-03-27 07:41:33 51°16.093 2°53.922 67.5 1.8 60 10.7
2012-03-27 07:41:38 51°16.095 2°53.926 63.9 1.9 54 10.7
2012-03-27 07:41:43 51°16.096 2°53.929 60.4 2 52 10.6
2012-03-27 07:41:48 51°16.098 2°53.933 57.5 2.1 45 10.7
2012-03-27 07:41:53 51°16.101 2°53.937 54.8 2.3 45 10.6
2012-03-27 07:41:58 51°16.104 2°53.94 52.7 2.8 41 10.6
2012-03-27 07:42:03 51°16.108 2°53.945 50.8 3.4 39 10.6
2012-03-27 07:42:08 51°16.112 2°53.951 49.2 4.2 39 10.6
2012-03-27 07:42:13 51°16.118 2°53.958 47.3 4.8 37 10.6
2012-03-27 07:42:18 51°16.123 2°53.965 46.2 5.3 38 10.7
2012-03-27 07:42:23 51°16.13 2°53.973 45.8 6 38 10.7
2012-03-27 07:42:28 51°16.137 2°53.983 45.8 6.6 40 10.7
2012-03-27 07:42:33 51°16.144 2°53.993 46.1 7 40 10.7
2012-03-27 07:42:38 51°16.152 2°54.003 46.5 7.2 41 10.6
2012-03-27 07:42:43 51°16.16 2°54.014 47 7.5 42 10.5
2012-03-27 07:42:48 51°16.167 2°54.025 47.6 7.7 43 10.5
2012-03-27 07:42:53 51°16.176 2°54.038 48.5 8.1 44 10.6
2012-03-27 07:42:58 51°16.184 2°54.05 49.3 8.3 45 10.5
2012-03-27 07:43:03 51°16.192 2°54.063 50 8.3 45 10.5
2012-03-27 07:43:08 51°16.199 2°54.077 51.3 8.3 47 10.6
2012-03-27 07:43:13 51°16.207 2°54.091 52.5 8.5 49 10.5
2012-03-27 07:43:18 51°16.215 2°54.105 54.2 8.4 49 10.5
2012-03-27 07:43:23 51°16.223 2°54.119 54.4 8.7 49 10.6
2012-03-27 07:43:28 51°16.23 2°54.133 54.5 8.5 50 10.7
2012-03-27 07:43:33 51°16.238 2°54.147 54.5 8.6 48 10.6
2012-03-27 07:43:38 51°16.246 2°54.162 53.9 8.6 48 10.6
2012-03-27 07:43:43 51°16.254 2°54.177 53.2 8.6 48 10.5
2012-03-27 07:43:48 51°16.262 2°54.191 52.8 8.7 49 10.5
2012-03-27 07:43:53 51°16.27 2°54.206 53.1 8.8 49 10.5
2012-03-27 07:43:58 51°16.277 2°54.222 54.4 8.8 53 10.6
2012-03-27 07:44:03 51°16.284 2°54.239 56.4 8.9 56 10.5
2012-03-27 07:44:08 51°16.29 2°54.255 58.9 8.7 60 10.5
2012-03-27 07:44:13 51°16.295 2°54.272 62.5 8.6 65 10.5
2012-03-27 07:44:18 51°16.299 2°54.288 67.6 7.8 71 10.5
2012-03-27 07:44:23 51°16.301 2°54.302 72.2 6.9 75 10.5
2012-03-27 07:44:28 51°16.303 2°54.316 76.5 6.3 80 10.7
2012-03-27 07:44:33 51°16.303 2°54.329 80.8 5.8 85 10.6
2012-03-27 07:44:38 51°16.303 2°54.341 84.5 5.3 91 10.6
2012-03-27 07:44:43 51°16.302 2°54.351 90.1 4.8 101 10.7
2012-03-27 07:44:47 51°16.301 2°54.359 94.9 4.4 100 10.7
2012-03-27 07:44:53 51°16.299 2°54.368 97.4 3.9 109 10.7
2012-03-27 07:44:58 51°16.298 2°54.376 99.6 3.4 111 10.6
2012-03-27 07:45:03 51°16.295 2°54.382 102.5 3.1 119 10.8
2012-03-27 07:45:08 51°16.293 2°54.387 105.5 2.6 124 10.7
2012-03-27 07:45:13 51°16.291 2°54.39 109 2.2 135 10.6
2012-03-27 07:45:18 51°16.289 2°54.393 113.7 1.8 146 10.7
2012-03-27 07:45:23 51°16.287 2°54.394 118.4 1.4 156 10.6
2012-03-27 07:45:28 51°16.286 2°54.394 123.4 1.1 178 10.6
2012-03-27 07:45:33 51°16.284 2°54.392 129 1 211 10.5
2012-03-27 07:45:38 51°16.284 2°54.391 134 0.9 237 10.6
2012-03-27 07:45:43 51°16.283 2°54.388 138.7 1.1 250 10.5
2012-03-27 07:45:48 51°16.283 2°54.385 142.5 1.3 250 10.6
2012-03-27 07:45:53 51°16.282 2°54.383 145.6 1.1 250 10.7
2012-03-27 07:45:58 51°16.282 2°54.381 148.2 1.2 251 10.6
2012-03-27 07:46:03 51°16.281 2°54.378 150.5 1.2 253 10.6
2012-03-27 07:46:08 51°16.281 2°54.376 152.5 1.2 251 10.6
2012-03-27 07:46:13 51°16.28 2°54.373 154.4 1.2 251 5.6
2012-03-27 07:46:18 51°16.279 2°54.371 156.2 1.1 250 5.9
2012-03-27 07:46:23 51°16.279 2°54.368 157.9 1.2 249 5.3
2012-03-27 07:46:28 51°16.278 2°54.366 159.7 1.3 247 5.8
2012-03-27 07:46:34 51°16.278 2°54.363 161.3 1.1 249 -999
2012-03-27 07:46:39 51°16.277 2°54.36 163.2 1.3 252 -999
2012-03-27 07:46:45 51°16.276 2°54.357 164.4 1.2 250 -999
2012-03-27 07:46:51 51°16.276 2°54.354 165.6 1.2 251 -999
2012-03-27 07:46:56 51°16.275 2°54.351 166.5 1.2 249 -999
2012-03-27 07:47:02 51°16.274 2°54.348 167.5 1.3 251 -999
2012-03-27 07:47:07 51°16.274 2°54.345 168.7 1.3 249 -999
2012-03-27 07:47:11 51°16.273 2°54.343 169.9 1.3 251 -999
2012-03-27 07:47:16 51°16.273 2°54.34 170.6 1.3 253 -999
2012-03-27 07:47:21 51°16.272 2°54.338 171.5 1.2 248 -999
2012-03-27 07:47:27 51°16.271 2°54.335 172.5 1.2 248 -999
2012-03-27 07:47:31 51°16.271 2°54.333 173.3 1.3 249 -999